createdAt,value
2022-10-31T00:00:50.715Z,14.37
2022-10-31T00:03:19.417Z,14.43
2022-10-31T00:05:49.054Z,14.02
2022-10-31T00:08:17.620Z,14.23
2022-10-31T00:10:48.069Z,14.38
2022-10-31T00:13:16.516Z,14.44
2022-10-31T00:15:44.597Z,14.44
2022-10-31T00:18:13.044Z,14.44
2022-10-31T00:20:41.180Z,14.44
2022-10-31T00:23:09.571Z,14.39
2022-10-31T00:25:39.594Z,14.41
2022-10-31T00:28:11.647Z,14.43
2022-10-31T00:30:39.634Z,14.42
2022-10-31T00:33:07.573Z,14.35
2022-10-31T00:35:35.536Z,14.33
2022-10-31T00:38:03.492Z,14.15
2022-10-31T00:40:31.473Z,13.48
2022-10-31T00:42:59.651Z,13.82
2022-10-31T00:45:29.214Z,14.02
2022-10-31T00:47:57.516Z,14.11
2022-10-31T00:50:25.919Z,14.15
2022-10-31T00:52:53.859Z,14.10
2022-10-31T00:55:21.808Z,14.16
2022-10-31T00:57:49.982Z,14.11
2022-10-31T01:00:18.670Z,14.17
2022-10-31T01:02:48.131Z,14.15
2022-10-31T01:05:16.350Z,14.19
2022-10-31T01:07:44.578Z,14.19
2022-10-31T01:10:13.026Z,14.24
2022-10-31T01:12:42.312Z,14.34
2022-10-31T01:15:12.632Z,14.35
2022-10-31T01:17:40.684Z,14.36
2022-10-31T01:20:12.425Z,14.34
2022-10-31T01:22:40.398Z,14.27
2022-10-31T01:25:10.531Z,14.26
2022-10-31T01:27:38.478Z,14.12
2022-10-31T01:30:08.004Z,13.99
2022-10-31T01:32:36.094Z,14.10
2022-10-31T01:35:04.380Z,14.19
2022-10-31T01:37:34.310Z,14.22
2022-10-31T01:40:02.238Z,14.12
2022-10-31T01:42:30.154Z,14.10
2022-10-31T01:45:02.639Z,14.01
2022-10-31T01:47:39.988Z,13.85
2022-10-31T01:50:14.928Z,13.83
2022-10-31T01:52:46.891Z,13.82
2022-10-31T01:55:19.760Z,13.66
2022-10-31T01:57:50.717Z,13.49
2022-10-31T02:00:21.042Z,13.54
2022-10-31T02:02:51.527Z,13.46
2022-10-31T02:05:23.569Z,13.41
2022-10-31T02:07:59.586Z,13.41
2022-10-31T02:10:28.747Z,13.32
2022-10-31T02:13:00.717Z,13.14
2022-10-31T02:15:30.582Z,13.25
2022-10-31T02:17:59.351Z,13.06
2022-10-31T02:20:34.249Z,12.75
2022-10-31T02:23:39.639Z,12.36
2022-10-31T02:26:46.504Z,12.27
2022-10-31T02:29:38.102Z,11.98
2022-10-31T02:32:13.232Z,11.53
2022-10-31T02:34:49.303Z,11.66
2022-10-31T02:37:25.327Z,11.65
2022-10-31T02:40:02.308Z,12.00
2022-10-31T02:42:37.105Z,12.23
2022-10-31T02:45:11.563Z,12.35
2022-10-31T02:47:41.202Z,12.41
2022-10-31T02:50:13.131Z,12.02
2022-10-31T02:52:41.063Z,12.03
2022-10-31T02:55:14.160Z,12.22
2022-10-31T02:57:44.020Z,12.37
2022-10-31T03:00:12.859Z,12.29
2022-10-31T03:03:02.735Z,12.40
2022-10-31T03:05:53.104Z,12.56
2022-10-31T03:08:25.865Z,12.60
2022-10-31T03:10:58.136Z,12.61
2022-10-31T03:13:36.591Z,12.59
2022-10-31T03:16:11.527Z,12.52
2022-10-31T03:18:45.167Z,12.08
2022-10-31T03:21:15.724Z,12.29
2022-10-31T03:23:47.423Z,12.38
2022-10-31T03:26:17.808Z,12.28
2022-10-31T03:28:49.479Z,11.92
2022-10-31T03:31:20.933Z,12.07
2022-10-31T03:33:53.301Z,11.99
2022-10-31T03:36:23.135Z,12.08
2022-10-31T03:38:52.105Z,12.12
2022-10-31T03:41:24.846Z,11.97
2022-10-31T03:44:00.185Z,12.10
2022-10-31T03:46:29.114Z,11.94
2022-10-31T03:48:59.423Z,11.37
2022-10-31T03:51:33.124Z,11.49
2022-10-31T03:54:06.405Z,11.52
2022-10-31T03:56:38.524Z,11.48
2022-10-31T03:59:09.921Z,11.50
2022-10-31T04:01:47.465Z,11.51
2022-10-31T04:04:17.320Z,11.61
2022-10-31T04:06:47.545Z,11.64
2022-10-31T04:09:16.990Z,11.59
2022-10-31T04:11:48.177Z,11.46
2022-10-31T04:14:16.281Z,11.38
2022-10-31T04:16:46.048Z,10.73
2022-10-31T04:19:14.730Z,11.12
2022-10-31T04:21:44.435Z,11.09
2022-10-31T04:24:12.784Z,10.92
2022-10-31T04:26:40.736Z,10.80
2022-10-31T04:29:08.733Z,10.97
2022-10-31T04:31:36.691Z,11.07
2022-10-31T04:34:04.656Z,11.08
2022-10-31T04:36:32.790Z,11.00
2022-10-31T04:39:02.150Z,10.42
2022-10-31T04:41:30.228Z,9.87
2022-10-31T04:43:58.240Z,9.94
2022-10-31T04:46:26.229Z,10.03
2022-10-31T04:48:54.157Z,10.12
2022-10-31T04:51:22.089Z,10.28
2022-10-31T04:53:50.066Z,10.02
2022-10-31T04:56:19.351Z,10.33
2022-10-31T04:58:47.297Z,10.43
2022-10-31T05:01:15.773Z,10.52
2022-10-31T05:03:43.816Z,10.51
2022-10-31T05:06:11.763Z,10.56
2022-10-31T05:08:39.719Z,10.43
2022-10-31T05:11:07.638Z,10.58
2022-10-31T05:13:36.921Z,10.49
2022-10-31T05:16:04.962Z,10.43
2022-10-31T05:18:33.001Z,10.51
2022-10-31T05:21:00.949Z,10.45
2022-10-31T05:23:28.951Z,10.56
2022-10-31T05:25:56.975Z,10.64
2022-10-31T05:28:25.304Z,10.71
2022-10-31T05:30:54.633Z,10.77
2022-10-31T05:33:22.599Z,10.82
2022-10-31T05:35:50.555Z,10.86
2022-10-31T05:38:18.464Z,10.99
2022-10-31T05:40:46.403Z,11.12
2022-10-31T05:43:15.244Z,11.31
2022-10-31T05:45:43.164Z,11.45
2022-10-31T05:48:12.465Z,11.53
2022-10-31T05:50:40.409Z,11.67
2022-10-31T05:53:08.324Z,11.83
2022-10-31T05:55:36.652Z,11.97
2022-10-31T05:58:04.765Z,12.16
2022-10-31T06:00:34.070Z,12.36
2022-10-31T06:03:03.258Z,12.59
2022-10-31T06:05:32.939Z,12.78
2022-10-31T06:08:01.564Z,12.93
2022-10-31T06:10:30.324Z,13.06
2022-10-31T06:12:59.375Z,13.20
2022-10-31T06:15:27.322Z,13.37
2022-10-31T06:18:03.451Z,13.48
2022-10-31T06:20:33.663Z,13.55
2022-10-31T06:23:01.892Z,13.72
2022-10-31T06:25:30.550Z,13.84
2022-10-31T06:27:58.592Z,13.92
2022-10-31T06:30:26.766Z,14.09
2022-10-31T06:32:54.836Z,14.23
2022-10-31T06:35:23.120Z,14.48
2022-10-31T06:37:56.525Z,14.55
2022-10-31T06:40:24.764Z,14.44
2022-10-31T06:42:58.784Z,14.47
2022-10-31T06:45:26.548Z,14.06
2022-10-31T06:48:15.928Z,13.84
2022-10-31T06:50:42.561Z,14.11
2022-10-31T06:53:12.037Z,14.15
2022-10-31T06:55:40.288Z,14.38
2022-10-31T06:58:08.737Z,14.56
2022-10-31T07:00:37.026Z,14.72
2022-10-31T07:03:07.491Z,14.89
2022-10-31T07:05:35.959Z,15.19
2022-10-31T07:08:07.733Z,15.29
2022-10-31T07:10:40.615Z,15.47
2022-10-31T07:13:12.645Z,15.58
2022-10-31T07:15:42.898Z,15.77
2022-10-31T07:18:12.485Z,15.83
2022-10-31T07:20:40.489Z,15.83
2022-10-31T07:23:08.911Z,15.95
2022-10-31T07:25:38.342Z,16.16
2022-10-31T07:28:06.602Z,16.40
2022-10-31T07:30:34.560Z,16.59
2022-10-31T07:33:02.875Z,16.75
2022-10-31T07:35:31.827Z,16.99
2022-10-31T07:38:08.309Z,17.16
2022-10-31T07:40:36.273Z,17.35
2022-10-31T07:43:10.020Z,17.56
2022-10-31T07:45:41.137Z,17.69
2022-10-31T07:48:09.088Z,17.78
2022-10-31T07:50:37.209Z,17.90
2022-10-31T07:53:08.036Z,18.11
2022-10-31T07:55:36.877Z,18.24
2022-10-31T07:58:08.457Z,18.36
2022-10-31T08:00:38.012Z,18.61
2022-10-31T08:03:07.766Z,18.48
2022-10-31T08:05:36.848Z,18.68
2022-10-31T08:08:06.219Z,18.78
2022-10-31T08:10:35.404Z,19.01
2022-10-31T08:13:05.353Z,19.09
2022-10-31T08:15:39.136Z,19.23
2022-10-31T08:18:07.260Z,19.26
2022-10-31T08:20:35.493Z,19.24
2022-10-31T08:23:05.280Z,19.38
2022-10-31T08:25:38.415Z,19.38
2022-10-31T08:28:07.460Z,19.59
2022-10-31T08:30:38.663Z,19.71
2022-10-31T08:33:08.605Z,19.76
2022-10-31T08:35:36.742Z,19.89
2022-10-31T08:38:05.538Z,20.05
2022-10-31T08:40:36.199Z,20.09
2022-10-31T08:43:05.858Z,20.21
2022-10-31T08:45:36.435Z,20.19
2022-10-31T08:48:06.832Z,20.24
2022-10-31T08:50:37.064Z,19.94
2022-10-31T08:53:06.534Z,20.13
2022-10-31T08:55:36.786Z,20.46
2022-10-31T08:58:06.105Z,20.55
2022-10-31T09:00:34.728Z,20.74
2022-10-31T09:03:06.507Z,20.85
2022-10-31T09:05:35.755Z,20.80
2022-10-31T09:08:06.007Z,20.69
2022-10-31T09:10:36.038Z,20.73
2022-10-31T09:13:07.419Z,20.76
2022-10-31T09:15:37.045Z,20.90
2022-10-31T09:18:06.794Z,20.93
2022-10-31T09:20:36.830Z,20.97
2022-10-31T09:23:07.528Z,20.98
2022-10-31T09:25:36.831Z,21.02
2022-10-31T09:28:06.671Z,21.09
2022-10-31T09:30:36.884Z,21.02
2022-10-31T09:33:07.956Z,20.98
2022-10-31T09:35:36.632Z,21.11
2022-10-31T09:38:06.340Z,21.19
2022-10-31T09:40:37.435Z,20.95
2022-10-31T09:43:16.556Z,21.18
2022-10-31T09:45:53.249Z,21.23
2022-10-31T09:48:47.093Z,21.22
2022-10-31T09:51:19.156Z,21.37
2022-10-31T09:53:51.504Z,21.45
2022-10-31T09:56:23.001Z,21.46
2022-10-31T09:58:56.415Z,21.47
2022-10-31T10:01:35.318Z,21.51
2022-10-31T10:04:20.682Z,21.33
2022-10-31T10:06:51.949Z,21.40
2022-10-31T10:12:04.670Z,21.37
2022-10-31T10:14:47.788Z,21.34
2022-10-31T10:17:28.370Z,21.41
2022-10-31T10:20:29.124Z,21.45
2022-10-31T10:23:06.202Z,21.47
2022-10-31T10:25:40.735Z,21.52
2022-10-31T10:28:23.925Z,21.65
2022-10-31T10:30:58.942Z,21.81
2022-10-31T10:33:34.060Z,21.90
2022-10-31T10:36:07.984Z,21.83
2022-10-31T10:38:41.731Z,21.81
2022-10-31T10:41:18.648Z,21.75
2022-10-31T10:46:39.359Z,21.69
2022-10-31T10:49:17.820Z,21.63
2022-10-31T10:52:13.225Z,21.64
2022-10-31T10:55:00.353Z,21.82
2022-10-31T10:57:40.629Z,21.56
2022-10-31T11:00:20.370Z,21.72
2022-10-31T11:02:49.179Z,21.76
2022-10-31T11:05:25.834Z,21.77
2022-10-31T11:07:55.430Z,21.81
2022-10-31T11:10:23.703Z,21.91
2022-10-31T11:13:06.079Z,21.87
2022-10-31T11:15:39.023Z,21.89
2022-10-31T11:18:07.709Z,22.05
2022-10-31T11:20:37.698Z,22.01
2022-10-31T11:23:22.535Z,21.94
2022-10-31T11:25:52.801Z,22.05
2022-10-31T11:28:20.926Z,22.06
2022-10-31T11:30:51.272Z,22.10
2022-10-31T11:33:24.122Z,22.11
2022-10-31T11:35:55.253Z,22.06
2022-10-31T11:38:35.764Z,21.96
2022-10-31T11:41:13.136Z,21.99
2022-10-31T11:43:47.653Z,21.98
2022-10-31T11:46:23.284Z,21.98
2022-10-31T11:48:54.742Z,21.71
2022-10-31T11:51:24.513Z,21.81
2022-10-31T11:53:59.924Z,21.33
2022-10-31T11:56:40.390Z,21.40
2022-10-31T11:59:19.443Z,21.61
2022-10-31T12:01:50.917Z,21.67
2022-10-31T12:04:19.722Z,21.69
2022-10-31T12:06:50.123Z,21.67
2022-10-31T12:09:25.299Z,21.64
2022-10-31T12:12:13.723Z,21.72
2022-10-31T12:14:53.083Z,21.70
2022-10-31T12:17:25.803Z,21.42
2022-10-31T12:20:05.320Z,21.36
2022-10-31T12:22:44.034Z,21.50
2022-10-31T12:25:30.644Z,21.63
2022-10-31T12:28:07.467Z,21.55
2022-10-31T12:30:49.560Z,21.48
2022-10-31T12:33:30.445Z,21.24
2022-10-31T12:36:15.332Z,21.31
2022-10-31T12:39:00.283Z,21.40
2022-10-31T12:41:44.119Z,21.32
2022-10-31T12:44:25.002Z,21.40
2022-10-31T12:47:08.197Z,21.39
2022-10-31T12:49:46.183Z,21.30
2022-10-31T12:52:32.528Z,21.28
2022-10-31T12:55:16.548Z,21.24
2022-10-31T12:57:47.370Z,21.26
2022-10-31T13:00:18.103Z,21.22
2022-10-31T13:02:54.258Z,21.14
2022-10-31T13:05:31.373Z,21.06
2022-10-31T13:08:03.756Z,20.94
2022-10-31T13:10:36.923Z,20.95
2022-10-31T13:13:13.112Z,20.98
2022-10-31T13:15:50.189Z,20.77
2022-10-31T13:18:28.953Z,20.82
2022-10-31T13:20:59.381Z,20.63
2022-10-31T13:26:26.398Z,20.69
2022-10-31T13:29:04.366Z,20.69
2022-10-31T13:31:32.475Z,20.58
2022-10-31T13:34:06.216Z,20.54
2022-10-31T13:36:38.585Z,20.58
2022-10-31T13:39:20.840Z,20.34
2022-10-31T13:41:55.945Z,20.35
2022-10-31T13:44:27.044Z,20.40
2022-10-31T13:46:56.955Z,20.24
2022-10-31T13:49:39.547Z,20.05
2022-10-31T13:52:15.763Z,20.07
2022-10-31T13:54:45.855Z,19.98
2022-10-31T13:57:21.748Z,19.94
2022-10-31T13:59:53.841Z,19.92
2022-10-31T14:02:28.888Z,19.95
2022-10-31T14:05:00.442Z,19.78
2022-10-31T14:07:30.974Z,19.74
2022-10-31T14:10:03.455Z,19.92
2022-10-31T14:12:35.974Z,19.74
2022-10-31T14:15:15.941Z,19.78
2022-10-31T14:17:50.028Z,19.78
2022-10-31T14:20:34.916Z,19.77
2022-10-31T14:23:27.921Z,19.66
2022-10-31T14:25:56.116Z,19.69
2022-10-31T14:28:33.780Z,19.67
2022-10-31T14:31:04.154Z,19.46
2022-10-31T14:33:33.254Z,19.37
2022-10-31T14:36:06.452Z,19.36
2022-10-31T14:38:49.810Z,19.21
2022-10-31T14:41:51.516Z,19.22
2022-10-31T14:44:54.762Z,19.11
2022-10-31T14:47:36.434Z,18.85
2022-10-31T14:50:23.916Z,18.84
2022-10-31T14:52:55.975Z,18.85
2022-10-31T14:55:26.291Z,18.78
2022-10-31T14:57:57.980Z,18.77
2022-10-31T15:00:26.896Z,18.65
2022-10-31T15:03:07.765Z,18.63
2022-10-31T15:05:43.520Z,18.53
2022-10-31T15:08:16.792Z,18.50
2022-10-31T15:10:47.922Z,18.48
2022-10-31T15:13:21.172Z,18.45
2022-10-31T15:15:52.485Z,18.40
2022-10-31T15:18:25.220Z,18.33
2022-10-31T15:20:54.574Z,18.22
2022-10-31T15:23:26.019Z,18.19
2022-10-31T15:26:01.310Z,18.09
2022-10-31T15:28:29.888Z,18.04
2022-10-31T15:30:59.793Z,17.98
2022-10-31T15:33:37.535Z,17.91
2022-10-31T15:36:07.757Z,17.79
2022-10-31T15:38:41.480Z,17.72
2022-10-31T15:41:35.831Z,17.60
2022-10-31T15:44:09.363Z,17.59
2022-10-31T15:46:37.372Z,17.50
2022-10-31T15:49:13.344Z,17.33
2022-10-31T15:51:41.580Z,17.38
2022-10-31T15:54:15.427Z,17.38
2022-10-31T15:56:45.562Z,17.35
2022-10-31T15:59:21.993Z,17.28
2022-10-31T16:02:03.139Z,17.23
2022-10-31T16:04:32.792Z,17.15
2022-10-31T16:07:05.696Z,17.06
2022-10-31T16:09:33.828Z,16.99
2022-10-31T16:12:01.780Z,16.95
2022-10-31T16:14:33.298Z,16.49
2022-10-31T16:17:03.593Z,16.55
2022-10-31T16:19:36.096Z,16.66
2022-10-31T16:22:08.997Z,16.68
2022-10-31T16:24:52.905Z,16.68
2022-10-31T16:27:26.591Z,16.58
2022-10-31T16:29:54.925Z,16.51
2022-10-31T16:32:31.934Z,16.47
2022-10-31T16:35:02.891Z,16.47
2022-10-31T16:37:30.968Z,16.45
2022-10-31T16:39:58.892Z,16.33
2022-10-31T16:42:26.953Z,16.32
2022-10-31T16:44:54.898Z,16.21
2022-10-31T16:47:26.001Z,16.07
2022-10-31T16:50:01.180Z,16.17
2022-10-31T16:52:38.129Z,16.11
2022-10-31T16:55:14.163Z,16.11
2022-10-31T16:57:45.741Z,16.05
2022-10-31T17:00:18.990Z,15.96
2022-10-31T17:02:49.939Z,15.94
2022-10-31T17:05:19.306Z,15.95
2022-10-31T17:07:49.433Z,15.92
2022-10-31T17:10:18.728Z,15.68
2022-10-31T17:12:49.959Z,15.62
2022-10-31T17:15:21.333Z,15.74
2022-10-31T17:17:49.264Z,15.77
2022-10-31T17:20:23.047Z,15.80
2022-10-31T17:22:52.608Z,15.79
2022-10-31T17:25:22.797Z,15.85
2022-10-31T17:27:50.800Z,15.85
2022-10-31T17:30:19.960Z,15.85
2022-10-31T17:32:49.276Z,15.73
2022-10-31T17:35:18.655Z,15.58
2022-10-31T17:37:47.820Z,15.57
2022-10-31T17:40:18.968Z,15.61
2022-10-31T17:42:51.152Z,15.61
2022-10-31T17:45:19.790Z,15.61
2022-10-31T17:47:49.619Z,15.57
2022-10-31T17:50:18.114Z,15.60
2022-10-31T17:52:46.133Z,15.47
2022-10-31T17:55:14.638Z,15.37
2022-10-31T17:57:45.030Z,15.36
2022-10-31T18:00:15.408Z,15.36
2022-10-31T18:02:43.856Z,15.28
2022-10-31T18:05:12.492Z,15.44
2022-10-31T18:07:40.442Z,15.37
2022-10-31T18:10:09.619Z,15.31
2022-10-31T18:12:38.150Z,15.31
2022-10-31T18:15:08.438Z,15.26
2022-10-31T18:17:39.442Z,15.22
2022-10-31T18:20:11.564Z,15.13
2022-10-31T18:22:39.803Z,15.06
2022-10-31T18:25:09.606Z,15.00
2022-10-31T18:27:37.833Z,15.00
2022-10-31T18:30:08.789Z,15.06
2022-10-31T18:32:36.767Z,15.04
2022-10-31T18:35:05.240Z,14.99
2022-10-31T18:37:33.172Z,14.96
2022-10-31T18:40:01.245Z,14.91
2022-10-31T18:42:29.433Z,14.92
2022-10-31T18:45:00.242Z,14.87
2022-10-31T18:47:36.318Z,14.66
2022-10-31T18:50:04.326Z,14.69
2022-10-31T18:52:33.072Z,14.50
2022-10-31T18:55:00.999Z,14.52
2022-10-31T18:57:29.958Z,14.53
2022-10-31T18:59:57.890Z,14.43
2022-10-31T19:02:25.863Z,14.34
2022-10-31T19:04:55.193Z,14.37
2022-10-31T19:07:23.119Z,14.19
2022-10-31T19:09:51.104Z,14.22
2022-10-31T19:12:19.021Z,14.12
2022-10-31T19:14:46.959Z,14.16
2022-10-31T19:17:14.887Z,14.15
2022-10-31T19:19:42.885Z,14.27
2022-10-31T19:22:12.192Z,14.37
2022-10-31T19:24:40.091Z,14.40
2022-10-31T19:27:10.448Z,14.45
2022-10-31T19:29:38.370Z,14.41
2022-10-31T19:32:06.883Z,14.44
2022-10-31T19:34:35.146Z,14.21
2022-10-31T19:37:03.129Z,14.09
2022-10-31T19:39:32.468Z,13.99
2022-10-31T19:42:00.412Z,13.84
2022-10-31T19:44:30.168Z,13.84
2022-10-31T19:46:58.391Z,13.93
2022-10-31T19:49:27.632Z,14.12
2022-10-31T19:51:55.628Z,14.24
2022-10-31T19:54:23.937Z,14.29
2022-10-31T19:56:53.330Z,14.24
2022-10-31T19:59:21.260Z,14.28
2022-10-31T20:01:49.328Z,14.27
2022-10-31T20:04:17.396Z,14.21
2022-10-31T20:06:45.772Z,14.17
2022-10-31T20:09:15.258Z,14.19
2022-10-31T20:11:45.190Z,14.11
2022-10-31T20:14:17.228Z,13.99
2022-10-31T20:16:46.037Z,14.11
2022-10-31T20:19:14.046Z,13.92
2022-10-31T20:21:42.883Z,13.77
2022-10-31T20:24:12.123Z,13.95
2022-10-31T20:26:42.333Z,14.05
2022-10-31T20:29:16.232Z,14.11
2022-10-31T20:31:45.535Z,14.13
2022-10-31T20:34:14.299Z,14.10
2022-10-31T20:36:42.265Z,14.09
2022-10-31T20:39:11.029Z,14.13
2022-10-31T20:41:39.874Z,14.16
2022-10-31T20:44:08.113Z,14.14
2022-10-31T20:46:37.504Z,13.95
2022-10-31T20:49:05.428Z,13.90
2022-10-31T20:51:33.431Z,13.84
2022-10-31T20:54:01.980Z,13.76
2022-10-31T20:56:30.543Z,13.66
2022-10-31T20:58:58.925Z,13.62
2022-10-31T21:01:29.066Z,13.62
2022-10-31T21:03:59.644Z,13.37
2022-10-31T21:06:28.283Z,13.46
2022-10-31T21:08:57.420Z,13.38
2022-10-31T21:11:26.823Z,13.34
2022-10-31T21:13:55.208Z,13.25
2022-10-31T21:16:24.680Z,13.32
2022-10-31T21:18:54.016Z,13.54
2022-10-31T21:21:29.023Z,13.72
2022-10-31T21:24:01.976Z,13.73
2022-10-31T21:26:33.501Z,13.55
2022-10-31T21:29:01.945Z,13.49
2022-10-31T21:31:30.176Z,13.42
2022-10-31T21:33:58.460Z,13.58
2022-10-31T21:36:27.937Z,13.54
2022-10-31T21:38:56.904Z,13.50
2022-10-31T21:41:26.488Z,13.54
2022-10-31T21:43:55.410Z,13.52
2022-10-31T21:46:25.052Z,13.56
2022-10-31T21:48:54.078Z,13.64
2022-10-31T21:51:24.176Z,13.65
2022-10-31T21:54:11.109Z,13.54
2022-10-31T21:56:39.655Z,13.64
2022-10-31T21:59:07.913Z,13.60
2022-10-31T22:01:37.026Z,13.45
2022-10-31T22:04:05.744Z,13.43
2022-10-31T22:06:34.035Z,13.56
2022-10-31T22:09:07.415Z,13.45
2022-10-31T22:11:36.275Z,13.48
2022-10-31T22:14:05.159Z,13.54
2022-10-31T22:16:36.435Z,13.54
2022-10-31T22:19:06.540Z,13.57
2022-10-31T22:21:38.738Z,13.60
2022-10-31T22:24:09.261Z,13.63
2022-10-31T22:26:38.035Z,13.59
2022-10-31T22:29:11.007Z,13.55
2022-10-31T22:31:40.911Z,13.34
2022-10-31T22:34:09.314Z,13.22
2022-10-31T22:36:37.853Z,13.16
2022-10-31T22:39:08.039Z,12.97
2022-10-31T22:41:37.304Z,12.94
2022-10-31T22:44:06.355Z,12.78
2022-10-31T22:46:36.050Z,12.93
2022-10-31T22:49:06.228Z,13.10
2022-10-31T22:51:36.202Z,13.20
2022-10-31T22:54:04.978Z,13.16
2022-10-31T22:56:35.680Z,13.07
2022-10-31T22:59:04.250Z,13.09
2022-10-31T23:01:34.803Z,13.18
2022-10-31T23:04:03.316Z,13.31
2022-10-31T23:06:33.557Z,13.28
2022-10-31T23:09:03.487Z,13.25
2022-10-31T23:11:35.713Z,13.23
2022-10-31T23:14:16.256Z,13.14
2022-10-31T23:16:47.574Z,12.98
2022-10-31T23:19:18.634Z,12.82
2022-10-31T23:22:00.313Z,12.84
2022-10-31T23:24:31.766Z,12.90
2022-10-31T23:27:10.833Z,12.81
2022-10-31T23:29:43.354Z,12.58
2022-10-31T23:32:14.888Z,12.60
2022-10-31T23:34:43.479Z,12.54
2022-10-31T23:37:11.961Z,12.60
2022-10-31T23:39:40.030Z,12.57
2022-10-31T23:42:10.697Z,12.49
2022-10-31T23:44:39.007Z,12.44
2022-10-31T23:47:07.440Z,12.26
2022-10-31T23:49:35.729Z,12.24
2022-10-31T23:52:04.975Z,12.29
2022-10-31T23:54:33.809Z,12.25
2022-10-31T23:57:02.080Z,12.18
2022-10-31T23:59:31.945Z,12.25
